sensor_id;sensor_type;location;lat;lon;timestamp;temperature;humidity
1005;DHT22;491;53.480;10.174;2023-03-20T00:00:33;12.20;99.90
1005;DHT22;491;53.480;10.174;2023-03-20T00:03:00;12.20;99.90
1005;DHT22;491;53.480;10.174;2023-03-20T00:05:27;12.10;99.90
1005;DHT22;491;53.480;10.174;2023-03-20T00:08:12;12.10;99.90
1005;DHT22;491;53.480;10.174;2023-03-20T00:10:47;12.10;99.90
1005;DHT22;491;53.480;10.174;2023-03-20T00:13:39;12.20;99.90
1005;DHT22;491;53.480;10.174;2023-03-20T00:16:14;12.20;99.90
1005;DHT22;491;53.480;10.174;2023-03-20T00:18:42;12.20;99.90
1005;DHT22;491;53.480;10.174;2023-03-20T00:21:19;12.20;99.90
1005;DHT22;491;53.480;10.174;2023-03-20T00:23:47;12.10;99.90
1005;DHT22;491;53.480;10.174;2023-03-20T00:26:16;12.20;99.90
1005;DHT22;491;53.480;10.174;2023-03-20T00:29:18;12.20;99.90
1005;DHT22;491;53.480;10.174;2023-03-20T00:32:04;12.20;99.90
1005;DHT22;491;53.480;10.174;2023-03-20T00:34:32;12.30;99.90
1005;DHT22;491;53.480;10.174;2023-03-20T00:36:57;12.20;99.90
1005;DHT22;491;53.480;10.174;2023-03-20T00:39:24;12.20;99.90
1005;DHT22;491;53.480;10.174;2023-03-20T00:42:20;12.20;99.90
1005;DHT22;491;53.480;10.174;2023-03-20T00:45:15;12.20;99.90
1005;DHT22;491;53.480;10.174;2023-03-20T00:47:56;12.30;99.90
1005;DHT22;491;53.480;10.174;2023-03-20T00:50:31;12.30;99.90
1005;DHT22;491;53.480;10.174;2023-03-20T00:53:01;12.30;99.90
1005;DHT22;491;53.480;10.174;2023-03-20T00:55:43;12.30;99.90
1005;DHT22;491;53.480;10.174;2023-03-20T00:58:25;12.30;99.90
1005;DHT22;491;53.480;10.174;2023-03-20T01:01:14;12.40;99.90
1005;DHT22;491;53.480;10.174;2023-03-20T01:03:39;12.40;99.90
1005;DHT22;491;53.480;10.174;2023-03-20T01:06:16;12.50;99.90
1005;DHT22;491;53.480;10.174;2023-03-20T01:09:24;12.40;99.90
1005;DHT22;491;53.480;10.174;2023-03-20T01:11:59;12.40;99.90
1005;DHT22;491;53.480;10.174;2023-03-20T01:14:44;12.40;99.90
1005;DHT22;491;53.480;10.174;2023-03-20T01:17:18;12.50;99.90
1005;DHT22;491;53.480;10.174;2023-03-20T01:19:46;12.50;99.90
1005;DHT22;491;53.480;10.174;2023-03-20T01:22:26;12.50;99.90
1005;DHT22;491;53.480;10.174;2023-03-20T01:25:41;12.50;99.90
1005;DHT22;491;53.480;10.174;2023-03-20T01:28:30;12.40;99.90
1005;DHT22;491;53.480;10.174;2023-03-20T01:31:05;12.30;99.90
1005;DHT22;491;53.480;10.174;2023-03-20T01:33:51;12.20;99.90
1005;DHT22;491;53.480;10.174;2023-03-20T01:36:39;12.30;99.90
1005;DHT22;491;53.480;10.174;2023-03-20T01:39:33;12.20;99.90
1005;DHT22;491;53.480;10.174;2023-03-20T01:41:59;12.20;99.90
1005;DHT22;491;53.480;10.174;2023-03-20T01:44:32;12.20;99.90
1005;DHT22;491;53.480;10.174;2023-03-20T01:47:01;12.20;99.90
1005;DHT22;491;53.480;10.174;2023-03-20T01:52:06;12.20;99.90
1005;DHT22;491;53.480;10.174;2023-03-20T01:54:55;12.20;99.90
1005;DHT22;491;53.480;10.174;2023-03-20T01:57:37;12.10;99.90
1005;DHT22;491;53.480;10.174;2023-03-20T02:00:25;11.90;99.90
1005;DHT22;491;53.480;10.174;2023-03-20T02:02:51;12.00;99.90
1005;DHT22;491;53.480;10.174;2023-03-20T02:05:26;12.00;99.90
1005;DHT22;491;53.480;10.174;2023-03-20T02:08:01;12.10;99.90
1005;DHT22;491;53.480;10.174;2023-03-20T02:10:29;12.00;99.90
1005;DHT22;491;53.480;10.174;2023-03-20T02:12:56;12.00;99.90
1005;DHT22;491;53.480;10.174;2023-03-20T02:15:33;12.00;99.90
1005;DHT22;491;53.480;10.174;2023-03-20T02:18:02;11.90;99.90
1005;DHT22;491;53.480;10.174;2023-03-20T02:24:18;11.80;99.90
1005;DHT22;491;53.480;10.174;2023-03-20T02:26:49;11.80;99.90
1005;DHT22;491;53.480;10.174;2023-03-20T02:35:31;11.40;99.90
1005;DHT22;491;53.480;10.174;2023-03-20T02:41:17;11.30;99.90
1005;DHT22;491;53.480;10.174;2023-03-20T02:47:30;11.40;99.90
1005;DHT22;491;53.480;10.174;2023-03-20T02:50:49;11.40;99.90
1005;DHT22;491;53.480;10.174;2023-03-20T02:59:59;11.40;99.90
1005;DHT22;491;53.480;10.174;2023-03-20T03:02:37;11.40;99.90
1005;DHT22;491;53.480;10.174;2023-03-20T03:05:15;11.40;99.90
1005;DHT22;491;53.480;10.174;2023-03-20T03:08:01;11.50;99.90
1005;DHT22;491;53.480;10.174;2023-03-20T03:14:00;11.50;99.90
1005;DHT22;491;53.480;10.174;2023-03-20T03:16:47;11.50;99.90
1005;DHT22;491;53.480;10.174;2023-03-20T03:19:23;11.60;99.90
1005;DHT22;491;53.480;10.174;2023-03-20T03:22:10;11.60;99.90
1005;DHT22;491;53.480;10.174;2023-03-20T03:25:09;11.50;99.90
1005;DHT22;491;53.480;10.174;2023-03-20T03:31:15;11.30;99.90
1005;DHT22;491;53.480;10.174;2023-03-20T03:33:52;11.40;99.90
1005;DHT22;491;53.480;10.174;2023-03-20T03:37:02;11.40;99.90
1005;DHT22;491;53.480;10.174;2023-03-20T03:39:59;11.40;99.90
1005;DHT22;491;53.480;10.174;2023-03-20T03:42:59;11.30;99.90
1005;DHT22;491;53.480;10.174;2023-03-20T03:46:18;11.40;99.90
1005;DHT22;491;53.480;10.174;2023-03-20T03:49:07;11.40;99.90
1005;DHT22;491;53.480;10.174;2023-03-20T03:51:40;11.50;99.90
1005;DHT22;491;53.480;10.174;2023-03-20T03:54:11;11.40;99.90
1005;DHT22;491;53.480;10.174;2023-03-20T03:56:40;11.40;99.90
1005;DHT22;491;53.480;10.174;2023-03-20T03:59:32;11.30;99.90
1005;DHT22;491;53.480;10.174;2023-03-20T04:02:17;11.40;99.90
1005;DHT22;491;53.480;10.174;2023-03-20T04:04:49;11.40;99.90
1005;DHT22;491;53.480;10.174;2023-03-20T04:07:44;11.40;99.90
1005;DHT22;491;53.480;10.174;2023-03-20T04:10:21;11.40;99.90
1005;DHT22;491;53.480;10.174;2023-03-20T04:12:49;11.40;99.90
1005;DHT22;491;53.480;10.174;2023-03-20T04:15:16;11.40;99.90
1005;DHT22;491;53.480;10.174;2023-03-20T04:17:45;11.40;99.90
1005;DHT22;491;53.480;10.174;2023-03-20T04:20:27;11.30;99.90
1005;DHT22;491;53.480;10.174;2023-03-20T04:22:54;11.30;99.90
1005;DHT22;491;53.480;10.174;2023-03-20T04:25:22;11.20;99.90
1005;DHT22;491;53.480;10.174;2023-03-20T04:27:52;11.10;99.90
1005;DHT22;491;53.480;10.174;2023-03-20T04:30:18;11.10;99.90
1005;DHT22;491;53.480;10.174;2023-03-20T04:32:45;11.10;99.90
1005;DHT22;491;53.480;10.174;2023-03-20T04:35:10;11.20;99.90
1005;DHT22;491;53.480;10.174;2023-03-20T04:37:36;11.30;99.90
1005;DHT22;491;53.480;10.174;2023-03-20T04:40:02;11.30;99.90
1005;DHT22;491;53.480;10.174;2023-03-20T04:42:29;11.40;99.90
1005;DHT22;491;53.480;10.174;2023-03-20T04:44:55;11.40;99.90
1005;DHT22;491;53.480;10.174;2023-03-20T04:47:20;11.40;99.90
1005;DHT22;491;53.480;10.174;2023-03-20T04:49:46;11.30;99.90
1005;DHT22;491;53.480;10.174;2023-03-20T04:52:14;11.30;99.90
1005;DHT22;491;53.480;10.174;2023-03-20T04:54:48;11.30;99.90
1005;DHT22;491;53.480;10.174;2023-03-20T04:57:14;11.20;99.90
1005;DHT22;491;53.480;10.174;2023-03-20T05:00:19;11.10;99.90
1005;DHT22;491;53.480;10.174;2023-03-20T05:02:53;10.80;99.90
1005;DHT22;491;53.480;10.174;2023-03-20T05:05:26;10.90;99.90
1005;DHT22;491;53.480;10.174;2023-03-20T05:07:54;10.80;99.90
1005;DHT22;491;53.480;10.174;2023-03-20T05:10:20;10.60;99.90
1005;DHT22;491;53.480;10.174;2023-03-20T05:12:49;10.60;99.90
1005;DHT22;491;53.480;10.174;2023-03-20T05:15:18;10.70;99.90
1005;DHT22;491;53.480;10.174;2023-03-20T05:17:43;10.60;99.90
1005;DHT22;491;53.480;10.174;2023-03-20T05:20:14;10.60;99.90
1005;DHT22;491;53.480;10.174;2023-03-20T05:22:41;10.60;99.90
1005;DHT22;491;53.480;10.174;2023-03-20T05:25:08;10.50;99.90
1005;DHT22;491;53.480;10.174;2023-03-20T05:27:34;10.40;99.90
1005;DHT22;491;53.480;10.174;2023-03-20T05:29:59;10.40;99.90
1005;DHT22;491;53.480;10.174;2023-03-20T05:32:25;10.50;99.90
1005;DHT22;491;53.480;10.174;2023-03-20T05:34:51;10.60;99.90
1005;DHT22;491;53.480;10.174;2023-03-20T05:37:17;10.60;99.90
1005;DHT22;491;53.480;10.174;2023-03-20T05:39:42;10.60;99.90
1005;DHT22;491;53.480;10.174;2023-03-20T05:42:09;10.60;99.90
1005;DHT22;491;53.480;10.174;2023-03-20T05:44:34;10.50;99.90
1005;DHT22;491;53.480;10.174;2023-03-20T05:47:03;10.50;99.90
1005;DHT22;491;53.480;10.174;2023-03-20T05:49:28;10.50;99.90
1005;DHT22;491;53.480;10.174;2023-03-20T05:51:54;10.50;99.90
1005;DHT22;491;53.480;10.174;2023-03-20T05:54:19;10.30;99.90
1005;DHT22;491;53.480;10.174;2023-03-20T05:56:45;10.30;99.90
1005;DHT22;491;53.480;10.174;2023-03-20T05:59:11;10.40;99.90
1005;DHT22;491;53.480;10.174;2023-03-20T06:01:36;10.40;99.90
1005;DHT22;491;53.480;10.174;2023-03-20T06:04:02;10.40;99.90
1005;DHT22;491;53.480;10.174;2023-03-20T06:06:50;10.50;99.90
1005;DHT22;491;53.480;10.174;2023-03-20T06:09:15;10.30;99.90
1005;DHT22;491;53.480;10.174;2023-03-20T06:11:42;10.20;99.90
1005;DHT22;491;53.480;10.174;2023-03-20T06:14:07;10.30;99.90
1005;DHT22;491;53.480;10.174;2023-03-20T06:16:33;10.20;99.90
1005;DHT22;491;53.480;10.174;2023-03-20T06:19:01;10.30;99.90
1005;DHT22;491;53.480;10.174;2023-03-20T06:21:27;10.30;99.90
1005;DHT22;491;53.480;10.174;2023-03-20T06:23:52;10.30;99.90
1005;DHT22;491;53.480;10.174;2023-03-20T06:26:20;10.30;99.90
1005;DHT22;491;53.480;10.174;2023-03-20T06:28:47;10.20;99.90
1005;DHT22;491;53.480;10.174;2023-03-20T06:31:12;10.30;99.90
1005;DHT22;491;53.480;10.174;2023-03-20T06:33:38;10.20;99.90
1005;DHT22;491;53.480;10.174;2023-03-20T06:36:04;10.30;99.90
1005;DHT22;491;53.480;10.174;2023-03-20T06:38:30;10.50;99.90
1005;DHT22;491;53.480;10.174;2023-03-20T06:40:55;10.50;99.90
1005;DHT22;491;53.480;10.174;2023-03-20T06:43:21;10.40;99.90
1005;DHT22;491;53.480;10.174;2023-03-20T06:45:54;10.40;99.90
1005;DHT22;491;53.480;10.174;2023-03-20T06:48:22;10.50;99.90
1005;DHT22;491;53.480;10.174;2023-03-20T06:50:49;10.50;99.90
1005;DHT22;491;53.480;10.174;2023-03-20T06:53:15;10.60;99.90
1005;DHT22;491;53.480;10.174;2023-03-20T06:55:42;10.60;99.90
1005;DHT22;491;53.480;10.174;2023-03-20T06:58:10;10.60;99.90
1005;DHT22;491;53.480;10.174;2023-03-20T07:00:43;10.60;99.90
1005;DHT22;491;53.480;10.174;2023-03-20T07:03:09;10.60;99.90
1005;DHT22;491;53.480;10.174;2023-03-20T07:05:37;10.40;99.90
1005;DHT22;491;53.480;10.174;2023-03-20T07:08:06;10.40;99.90
1005;DHT22;491;53.480;10.174;2023-03-20T07:10:34;10.50;99.90
1005;DHT22;491;53.480;10.174;2023-03-20T07:13:00;10.40;99.90
1005;DHT22;491;53.480;10.174;2023-03-20T07:15:26;10.40;99.90
1005;DHT22;491;53.480;10.174;2023-03-20T07:17:51;10.50;99.90
1005;DHT22;491;53.480;10.174;2023-03-20T07:20:17;10.40;99.90
1005;DHT22;491;53.480;10.174;2023-03-20T07:22:44;10.50;99.90
1005;DHT22;491;53.480;10.174;2023-03-20T07:25:10;10.40;99.90
1005;DHT22;491;53.480;10.174;2023-03-20T07:27:36;10.30;99.90
1005;DHT22;491;53.480;10.174;2023-03-20T07:30:14;10.30;99.90
1005;DHT22;491;53.480;10.174;2023-03-20T07:32:40;10.20;99.90
1005;DHT22;491;53.480;10.174;2023-03-20T07:35:10;10.20;99.90
1005;DHT22;491;53.480;10.174;2023-03-20T07:37:36;10.20;99.90
1005;DHT22;491;53.480;10.174;2023-03-20T07:40:02;10.20;99.90
1005;DHT22;491;53.480;10.174;2023-03-20T07:42:28;10.30;99.90
1005;DHT22;491;53.480;10.174;2023-03-20T07:45:00;10.40;99.90
1005;DHT22;491;53.480;10.174;2023-03-20T07:47:57;10.40;99.90
1005;DHT22;491;53.480;10.174;2023-03-20T07:50:23;10.50;99.90
1005;DHT22;491;53.480;10.174;2023-03-20T07:52:49;10.50;99.90
1005;DHT22;491;53.480;10.174;2023-03-20T07:55:16;10.40;99.90
1005;DHT22;491;53.480;10.174;2023-03-20T07:57:42;10.50;99.90
1005;DHT22;491;53.480;10.174;2023-03-20T08:00:17;10.60;99.90
1005;DHT22;491;53.480;10.174;2023-03-20T08:02:43;10.60;99.90
1005;DHT22;491;53.480;10.174;2023-03-20T08:05:09;10.70;99.90
1005;DHT22;491;53.480;10.174;2023-03-20T08:07:35;10.60;99.90
1005;DHT22;491;53.480;10.174;2023-03-20T08:10:01;10.70;99.90
1005;DHT22;491;53.480;10.174;2023-03-20T08:12:27;10.70;99.90
1005;DHT22;491;53.480;10.174;2023-03-20T08:14:53;10.70;99.90
1005;DHT22;491;53.480;10.174;2023-03-20T08:17:21;10.70;99.90
1005;DHT22;491;53.480;10.174;2023-03-20T08:19:47;10.70;99.90
1005;DHT22;491;53.480;10.174;2023-03-20T08:22:12;10.70;84.70
1005;DHT22;491;53.480;10.174;2023-03-20T08:24:40;10.70;61.60
1005;DHT22;491;53.480;10.174;2023-03-20T08:27:06;10.70;52.30
1005;DHT22;491;53.480;10.174;2023-03-20T08:29:33;10.90;76.00
1005;DHT22;491;53.480;10.174;2023-03-20T08:31:58;10.90;29.60
1005;DHT22;491;53.480;10.174;2023-03-20T08:34:24;11.00;1.00
1005;DHT22;491;53.480;10.174;2023-03-20T08:36:50;10.90;22.30
1005;DHT22;491;53.480;10.174;2023-03-20T08:39:17;10.90;1.00
1005;DHT22;491;53.480;10.174;2023-03-20T08:41:42;11.00;4.90
1005;DHT22;491;53.480;10.174;2023-03-20T08:44:10;10.90;1.00
1005;DHT22;491;53.480;10.174;2023-03-20T08:46:36;10.90;1.00
1005;DHT22;491;53.480;10.174;2023-03-20T08:49:21;10.90;1.00
1005;DHT22;491;53.480;10.174;2023-03-20T08:51:47;11.00;1.00
1005;DHT22;491;53.480;10.174;2023-03-20T08:54:13;11.00;1.00
1005;DHT22;491;53.480;10.174;2023-03-20T08:56:44;10.90;1.00
1005;DHT22;491;53.480;10.174;2023-03-20T08:59:17;10.90;1.00
1005;DHT22;491;53.480;10.174;2023-03-20T09:01:43;10.90;1.00
1005;DHT22;491;53.480;10.174;2023-03-20T09:04:12;10.90;1.00
1005;DHT22;491;53.480;10.174;2023-03-20T09:06:38;10.90;1.00
1005;DHT22;491;53.480;10.174;2023-03-20T09:09:11;11.00;8.80
1005;DHT22;491;53.480;10.174;2023-03-20T09:11:40;11.20;1.00
1005;DHT22;491;53.480;10.174;2023-03-20T09:14:05;11.20;1.00
1005;DHT22;491;53.480;10.174;2023-03-20T09:16:31;11.10;1.00
1005;DHT22;491;53.480;10.174;2023-03-20T09:18:57;11.20;1.00
1005;DHT22;491;53.480;10.174;2023-03-20T09:21:24;11.10;1.00
1005;DHT22;491;53.480;10.174;2023-03-20T09:23:49;11.00;1.00
1005;DHT22;491;53.480;10.174;2023-03-20T09:26:15;11.00;1.00
1005;DHT22;491;53.480;10.174;2023-03-20T09:28:47;11.00;1.00
1005;DHT22;491;53.480;10.174;2023-03-20T09:31:16;11.00;1.00
1005;DHT22;491;53.480;10.174;2023-03-20T09:33:42;11.10;1.00
1005;DHT22;491;53.480;10.174;2023-03-20T09:36:21;11.20;1.00
1005;DHT22;491;53.480;10.174;2023-03-20T09:38:54;11.30;1.00
1005;DHT22;491;53.480;10.174;2023-03-20T09:41:22;11.40;1.00
1005;DHT22;491;53.480;10.174;2023-03-20T09:55:14;11.20;1.00
1005;DHT22;491;53.480;10.174;2023-03-20T09:57:44;11.20;2.80
1005;DHT22;491;53.480;10.174;2023-03-20T10:00:15;11.20;4.40
1005;DHT22;491;53.480;10.174;2023-03-20T10:02:46;11.10;1.00
1005;DHT22;491;53.480;10.174;2023-03-20T10:05:18;11.10;8.20
1005;DHT22;491;53.480;10.174;2023-03-20T10:07:46;11.00;10.40
1005;DHT22;491;53.480;10.174;2023-03-20T10:10:14;11.00;7.80
1005;DHT22;491;53.480;10.174;2023-03-20T10:13:02;11.10;12.70
1005;DHT22;491;53.480;10.174;2023-03-20T10:15:38;11.20;9.80
1005;DHT22;491;53.480;10.174;2023-03-20T10:18:25;11.00;1.00
1005;DHT22;491;53.480;10.174;2023-03-20T10:23:35;10.80;1.00
1005;DHT22;491;53.480;10.174;2023-03-20T10:26:24;11.00;1.00
1005;DHT22;491;53.480;10.174;2023-03-20T10:32:22;11.00;1.00
1005;DHT22;491;53.480;10.174;2023-03-20T10:35:10;11.00;1.00
1005;DHT22;491;53.480;10.174;2023-03-20T10:38:02;11.00;1.00
1005;DHT22;491;53.480;10.174;2023-03-20T10:40:32;11.00;1.00
1005;DHT22;491;53.480;10.174;2023-03-20T10:43:05;11.10;99.90
1005;DHT22;491;53.480;10.174;2023-03-20T10:48:46;10.90;99.90
1005;DHT22;491;53.480;10.174;2023-03-20T10:51:36;11.00;99.90
1005;DHT22;491;53.480;10.174;2023-03-20T10:54:04;11.10;99.90
1005;DHT22;491;53.480;10.174;2023-03-20T10:56:51;11.00;99.90
1005;DHT22;491;53.480;10.174;2023-03-20T11:01:45;11.10;1.00
1005;DHT22;491;53.480;10.174;2023-03-20T11:04:15;11.20;1.00
1005;DHT22;491;53.480;10.174;2023-03-20T11:09:27;11.20;99.90
1005;DHT22;491;53.480;10.174;2023-03-20T11:12:00;11.30;99.90
1005;DHT22;491;53.480;10.174;2023-03-20T11:14:52;11.30;1.00
1005;DHT22;491;53.480;10.174;2023-03-20T11:17:16;11.40;1.00
1005;DHT22;491;53.480;10.174;2023-03-20T11:19:42;11.60;99.90
1005;DHT22;491;53.480;10.174;2023-03-20T11:22:25;11.70;99.90
1005;DHT22;491;53.480;10.174;2023-03-20T11:24:53;11.70;99.90
1005;DHT22;491;53.480;10.174;2023-03-20T11:27:40;11.60;99.90
1005;DHT22;491;53.480;10.174;2023-03-20T11:30:06;11.60;1.00
1005;DHT22;491;53.480;10.174;2023-03-20T11:32:44;11.60;99.90
1005;DHT22;491;53.480;10.174;2023-03-20T11:35:29;11.60;1.00
1005;DHT22;491;53.480;10.174;2023-03-20T11:40:38;11.50;1.00
1005;DHT22;491;53.480;10.174;2023-03-20T11:43:25;11.60;99.90
1005;DHT22;491;53.480;10.174;2023-03-20T11:45:56;11.40;99.90
1005;DHT22;491;53.480;10.174;2023-03-20T11:48:25;11.50;99.90
1005;DHT22;491;53.480;10.174;2023-03-20T11:51:01;11.60;95.10
1005;DHT22;491;53.480;10.174;2023-03-20T11:56:24;11.60;1.00
1005;DHT22;491;53.480;10.174;2023-03-20T11:59:03;11.60;1.00
1005;DHT22;491;53.480;10.174;2023-03-20T12:01:46;11.50;1.00
1005;DHT22;491;53.480;10.174;2023-03-20T12:04:18;11.60;1.00
1005;DHT22;491;53.480;10.174;2023-03-20T12:06:58;11.60;1.00
1005;DHT22;491;53.480;10.174;2023-03-20T12:15:24;11.60;1.00
1005;DHT22;491;53.480;10.174;2023-03-20T12:17:59;11.70;1.00
1005;DHT22;491;53.480;10.174;2023-03-20T12:23:52;11.60;99.90
1005;DHT22;491;53.480;10.174;2023-03-20T12:26:25;11.60;99.90
1005;DHT22;491;53.480;10.174;2023-03-20T12:29:02;11.60;1.00
1005;DHT22;491;53.480;10.174;2023-03-20T12:32:16;11.60;99.50
1005;DHT22;491;53.480;10.174;2023-03-20T12:35:26;11.60;1.00
1005;DHT22;491;53.480;10.174;2023-03-20T12:37:18;11.60;1.00
1005;DHT22;491;53.480;10.174;2023-03-20T12:39:57;11.60;1.00
1005;DHT22;491;53.480;10.174;2023-03-20T12:45:24;12.00;17.40
1005;DHT22;491;53.480;10.174;2023-03-20T12:48:23;12.20;1.00
1005;DHT22;491;53.480;10.174;2023-03-20T12:51:06;12.10;1.00
1005;DHT22;491;53.480;10.174;2023-03-20T13:05:06;12.30;99.90
1005;DHT22;491;53.480;10.174;2023-03-20T13:07:56;12.40;1.00
1005;DHT22;491;53.480;10.174;2023-03-20T13:10:39;12.80;1.00
1005;DHT22;491;53.480;10.174;2023-03-20T13:14:16;13.00;1.00
1005;DHT22;491;53.480;10.174;2023-03-20T13:19:06;13.60;99.90
1005;DHT22;491;53.480;10.174;2023-03-20T13:21:41;13.90;99.90
1005;DHT22;491;53.480;10.174;2023-03-20T13:24:40;14.00;99.90
1005;DHT22;491;53.480;10.174;2023-03-20T13:30:18;14.00;99.90
1005;DHT22;491;53.480;10.174;2023-03-20T13:36:01;13.70;99.90
1005;DHT22;491;53.480;10.174;2023-03-20T13:38:39;13.50;99.90
1005;DHT22;491;53.480;10.174;2023-03-20T13:41:07;13.40;99.90
1005;DHT22;491;53.480;10.174;2023-03-20T13:43:47;13.20;99.90
1005;DHT22;491;53.480;10.174;2023-03-20T13:46:50;13.10;99.90
1005;DHT22;491;53.480;10.174;2023-03-20T13:49:34;12.90;99.90
1005;DHT22;491;53.480;10.174;2023-03-20T13:54:44;12.70;99.90
1005;DHT22;491;53.480;10.174;2023-03-20T13:57:24;12.60;99.90
1005;DHT22;491;53.480;10.174;2023-03-20T14:03:22;12.50;99.90
1005;DHT22;491;53.480;10.174;2023-03-20T14:05:49;12.50;99.90
1005;DHT22;491;53.480;10.174;2023-03-20T14:08:35;12.50;99.90
1005;DHT22;491;53.480;10.174;2023-03-20T14:13:35;12.30;1.00
1005;DHT22;491;53.480;10.174;2023-03-20T14:16:08;12.30;1.00
1005;DHT22;491;53.480;10.174;2023-03-20T14:18:35;12.40;1.00
1005;DHT22;491;53.480;10.174;2023-03-20T14:21:02;12.40;1.00
1005;DHT22;491;53.480;10.174;2023-03-20T14:23:38;12.30;1.00
1005;DHT22;491;53.480;10.174;2023-03-20T14:26:19;12.30;1.00
1005;DHT22;491;53.480;10.174;2023-03-20T14:28:52;12.40;1.00
1005;DHT22;491;53.480;10.174;2023-03-20T14:31:21;12.50;1.00
1005;DHT22;491;53.480;10.174;2023-03-20T14:33:57;12.40;1.00
1005;DHT22;491;53.480;10.174;2023-03-20T14:39:32;12.40;1.00
1005;DHT22;491;53.480;10.174;2023-03-20T14:48:02;12.30;1.00
1005;DHT22;491;53.480;10.174;2023-03-20T14:50:31;12.30;1.00
1005;DHT22;491;53.480;10.174;2023-03-20T14:52:59;12.20;1.00
1005;DHT22;491;53.480;10.174;2023-03-20T14:55:27;12.20;1.00
1005;DHT22;491;53.480;10.174;2023-03-20T14:57:55;12.10;1.00
1005;DHT22;491;53.480;10.174;2023-03-20T15:00:23;12.10;1.00
1005;DHT22;491;53.480;10.174;2023-03-20T15:02:52;12.00;1.00
1005;DHT22;491;53.480;10.174;2023-03-20T15:05:25;12.10;1.00
1005;DHT22;491;53.480;10.174;2023-03-20T15:07:55;12.00;1.00
1005;DHT22;491;53.480;10.174;2023-03-20T15:10:22;11.90;1.00
1005;DHT22;491;53.480;10.174;2023-03-20T15:12:48;11.90;1.00
1005;DHT22;491;53.480;10.174;2023-03-20T15:15:28;11.90;1.00
1005;DHT22;491;53.480;10.174;2023-03-20T15:18:23;11.90;1.00
1005;DHT22;491;53.480;10.174;2023-03-20T15:20:49;12.00;1.00
1005;DHT22;491;53.480;10.174;2023-03-20T15:23:14;12.00;1.00
1005;DHT22;491;53.480;10.174;2023-03-20T15:25:45;11.80;1.00
1005;DHT22;491;53.480;10.174;2023-03-20T15:28:23;11.80;1.00
1005;DHT22;491;53.480;10.174;2023-03-20T15:30:55;11.80;1.00
1005;DHT22;491;53.480;10.174;2023-03-20T15:33:35;11.90;1.00
1005;DHT22;491;53.480;10.174;2023-03-20T15:36:12;11.90;1.00
1005;DHT22;491;53.480;10.174;2023-03-20T15:38:44;11.90;1.00
1005;DHT22;491;53.480;10.174;2023-03-20T15:41:30;12.00;1.00
1005;DHT22;491;53.480;10.174;2023-03-20T15:44:25;11.90;1.00
1005;DHT22;491;53.480;10.174;2023-03-20T15:46:59;11.80;1.00
1005;DHT22;491;53.480;10.174;2023-03-20T15:49:27;11.80;33.70
1005;DHT22;491;53.480;10.174;2023-03-20T15:51:56;11.60;99.90
1005;DHT22;491;53.480;10.174;2023-03-20T15:54:22;11.50;99.90
1005;DHT22;491;53.480;10.174;2023-03-20T15:56:50;11.60;99.90
1005;DHT22;491;53.480;10.174;2023-03-20T15:59:19;11.70;99.90
1005;DHT22;491;53.480;10.174;2023-03-20T16:01:57;11.70;99.90
1005;DHT22;491;53.480;10.174;2023-03-20T16:04:23;11.80;99.90
1005;DHT22;491;53.480;10.174;2023-03-20T16:06:55;11.80;99.90
1005;DHT22;491;53.480;10.174;2023-03-20T16:09:21;11.90;99.90
1005;DHT22;491;53.480;10.174;2023-03-20T16:11:53;11.90;99.90
1005;DHT22;491;53.480;10.174;2023-03-20T16:14:22;11.90;99.90
1005;DHT22;491;53.480;10.174;2023-03-20T16:16:50;11.90;99.90
1005;DHT22;491;53.480;10.174;2023-03-20T16:19:17;12.00;99.90
1005;DHT22;491;53.480;10.174;2023-03-20T16:21:47;12.00;99.90
1005;DHT22;491;53.480;10.174;2023-03-20T16:24:18;12.00;99.90
1005;DHT22;491;53.480;10.174;2023-03-20T16:26:49;12.10;99.90
1005;DHT22;491;53.480;10.174;2023-03-20T16:29:15;12.00;99.90
1005;DHT22;491;53.480;10.174;2023-03-20T16:32:06;11.90;99.90
1005;DHT22;491;53.480;10.174;2023-03-20T16:34:49;12.00;99.90
1005;DHT22;491;53.480;10.174;2023-03-20T16:37:27;12.10;99.90
1005;DHT22;491;53.480;10.174;2023-03-20T16:40:19;12.20;99.90
1005;DHT22;491;53.480;10.174;2023-03-20T16:42:45;12.10;99.90
1005;DHT22;491;53.480;10.174;2023-03-20T16:45:22;12.10;94.50
1005;DHT22;491;53.480;10.174;2023-03-20T16:47:48;12.10;99.90
1005;DHT22;491;53.480;10.174;2023-03-20T16:50:17;12.20;83.40
1005;DHT22;491;53.480;10.174;2023-03-20T16:52:49;12.20;41.00
1005;DHT22;491;53.480;10.174;2023-03-20T16:55:30;12.20;1.00
1005;DHT22;491;53.480;10.174;2023-03-20T16:57:58;12.20;1.00
1005;DHT22;491;53.480;10.174;2023-03-20T17:00:42;12.20;1.00
1005;DHT22;491;53.480;10.174;2023-03-20T17:04:10;12.20;1.00
1005;DHT22;491;53.480;10.174;2023-03-20T17:08:35;12.00;1.50
1005;DHT22;491;53.480;10.174;2023-03-20T17:11:12;12.00;42.80
1005;DHT22;491;53.480;10.174;2023-03-20T17:13:39;12.00;73.40
1005;DHT22;491;53.480;10.174;2023-03-20T17:16:08;11.90;99.90
1005;DHT22;491;53.480;10.174;2023-03-20T17:18:36;11.90;99.90
1005;DHT22;491;53.480;10.174;2023-03-20T17:21:02;11.90;99.90
1005;DHT22;491;53.480;10.174;2023-03-20T17:23:29;11.80;99.90
1005;DHT22;491;53.480;10.174;2023-03-20T17:25:55;11.70;99.90
1005;DHT22;491;53.480;10.174;2023-03-20T17:28:22;11.70;99.90
1005;DHT22;491;53.480;10.174;2023-03-20T17:30:50;11.80;99.90
1005;DHT22;491;53.480;10.174;2023-03-20T17:33:17;11.80;99.90
1005;DHT22;491;53.480;10.174;2023-03-20T17:35:45;11.80;99.90
1005;DHT22;491;53.480;10.174;2023-03-20T17:38:17;11.90;99.90
1005;DHT22;491;53.480;10.174;2023-03-20T17:40:44;12.00;99.90
1005;DHT22;491;53.480;10.174;2023-03-20T17:43:11;11.80;99.90
1005;DHT22;491;53.480;10.174;2023-03-20T17:45:59;11.80;1.00
1005;DHT22;491;53.480;10.174;2023-03-20T17:48:24;11.60;1.00
1005;DHT22;491;53.480;10.174;2023-03-20T17:50:51;11.50;99.90
1005;DHT22;491;53.480;10.174;2023-03-20T17:53:20;11.40;99.90
1005;DHT22;491;53.480;10.174;2023-03-20T17:55:46;11.50;1.00
1005;DHT22;491;53.480;10.174;2023-03-20T17:58:22;11.50;5.10
1005;DHT22;491;53.480;10.174;2023-03-20T18:00:52;11.60;11.00
1005;DHT22;491;53.480;10.174;2023-03-20T18:03:18;11.50;99.90
1005;DHT22;491;53.480;10.174;2023-03-20T18:05:46;11.30;99.90
1005;DHT22;491;53.480;10.174;2023-03-20T18:08:18;11.30;1.00
1005;DHT22;491;53.480;10.174;2023-03-20T18:10:47;11.30;99.90
1005;DHT22;491;53.480;10.174;2023-03-20T18:13:12;11.30;99.90
1005;DHT22;491;53.480;10.174;2023-03-20T18:15:42;11.40;99.90
1005;DHT22;491;53.480;10.174;2023-03-20T18:18:10;11.40;1.00
1005;DHT22;491;53.480;10.174;2023-03-20T18:20:38;11.50;1.00
1005;DHT22;491;53.480;10.174;2023-03-20T18:23:05;11.40;99.90
1005;DHT22;491;53.480;10.174;2023-03-20T18:25:31;11.40;1.00
1005;DHT22;491;53.480;10.174;2023-03-20T18:28:00;11.40;1.00
1005;DHT22;491;53.480;10.174;2023-03-20T18:30:30;11.40;99.90
1005;DHT22;491;53.480;10.174;2023-03-20T18:32:56;11.50;99.90
1005;DHT22;491;53.480;10.174;2023-03-20T18:35:22;11.50;99.90
1005;DHT22;491;53.480;10.174;2023-03-20T18:37:49;11.60;99.90
1005;DHT22;491;53.480;10.174;2023-03-20T18:40:23;11.70;1.00
1005;DHT22;491;53.480;10.174;2023-03-20T18:42:53;11.80;99.90